Time;durP1;ratioP1;P1;durP2;ratioP2;P2;SDS_P1;SDS_P2;PMS_P1;PMS_P2;Temp;Humidity;BMP_temperature;BMP_pressure;BME280_temperature;BME280_humidity;BME280_pressure;Samples;Min_cycle;Max_cycle;Signal;HPM_P1;HPM_P2
2023/04/30 00:00:49;;;;;;;8.55;4.30;;;8.40;99.90;;;;;;5108058;27;20051;-82
2023/04/30 00:03:15;;;;;;;7.38;3.63;;;8.40;99.90;;;;;;5074234;28;20078;-81
2023/04/30 00:05:41;;;;;;;6.70;4.40;;;8.40;99.90;;;;;;5070861;28;20059;-79
2023/04/30 00:08:07;;;;;;;7.82;4.18;;;8.60;99.90;;;;;;5076550;28;20579;-79
2023/04/30 00:10:32;;;;;;;6.05;3.90;;;8.40;99.90;;;;;;5092271;28;20122;-78
2023/04/30 00:12:58;;;;;;;8.68;4.50;;;8.30;99.90;;;;;;5092151;28;20044;-80
2023/04/30 00:15:24;;;;;;;7.20;4.03;;;8.40;99.90;;;;;;5101442;28;20384;-82
2023/04/30 00:17:49;;;;;;;7.78;3.58;;;8.40;99.90;;;;;;5092572;28;20036;-81
2023/04/30 00:20:15;;;;;;;7.47;4.68;;;8.10;99.90;;;;;;5091777;28;20483;-79
2023/04/30 00:22:41;;;;;;;5.63;3.75;;;8.20;99.90;;;;;;5067698;28;20040;-78
2023/04/30 00:25:07;;;;;;;8.57;4.20;;;8.30;99.90;;;;;;5072422;28;20028;-77
2023/04/30 00:27:32;;;;;;;4.57;2.90;;;8.10;99.90;;;;;;5089692;28;20048;-79
2023/04/30 00:29:58;;;;;;;4.72;2.90;;;7.70;99.90;;;;;;5109472;28;20048;-80
2023/04/30 00:32:24;;;;;;;8.75;4.07;;;7.70;99.90;;;;;;5107683;28;20043;-82
2023/04/30 00:34:49;;;;;;;7.97;4.30;;;7.60;99.90;;;;;;5072378;28;20476;-82
2023/04/30 00:37:15;;;;;;;9.93;5.03;;;7.50;99.90;;;;;;5091485;28;20115;-82
2023/04/30 00:39:41;;;;;;;9.20;4.88;;;7.70;99.90;;;;;;5055541;28;20043;-79
2023/04/30 00:42:07;;;;;;;8.88;4.68;;;7.50;99.90;;;;;;5076351;28;20571;-78
2023/04/30 00:44:32;;;;;;;10.35;5.13;;;7.50;99.90;;;;;;5056881;28;20653;-79
2023/04/30 00:46:58;;;;;;;9.10;5.32;;;7.80;99.90;;;;;;5101853;27;20042;-80
2023/04/30 00:49:24;;;;;;;5.57;4.75;;;7.90;99.90;;;;;;5075752;27;20028;-79
2023/04/30 00:51:51;;;;;;;6.75;3.78;;;7.70;99.90;;;;;;5108742;27;20043;-79
2023/04/30 00:54:19;;;;;;;5.68;4.20;;;7.90;99.90;;;;;;5105686;28;20527;-84
2023/04/30 00:56:45;;;;;;;7.05;4.55;;;7.80;99.90;;;;;;5096029;28;20147;-80
2023/04/30 00:59:12;;;;;;;8.35;4.45;;;7.60;99.90;;;;;;5077610;28;20411;-83
2023/04/30 01:01:38;;;;;;;7.13;4.53;;;7.60;99.90;;;;;;5074451;28;20050;-77
2023/04/30 01:04:04;;;;;;;12.65;4.57;;;7.90;99.90;;;;;;5054713;28;20039;-80
2023/04/30 01:06:30;;;;;;;6.22;4.30;;;7.90;99.90;;;;;;5089847;28;20051;-81
2023/04/30 01:08:57;;;;;;;9.25;5.03;;;7.70;99.90;;;;;;5100839;28;20040;-79
2023/04/30 01:11:48;;;;;;;7.28;4.20;;;7.70;99.90;;;;;;5088672;28;20039;-81
2023/04/30 01:14:38;;;;;;;8.93;4.43;;;7.60;99.90;;;;;;5101866;27;20034;-79
2023/04/30 01:17:26;;;;;;;7.35;3.78;;;7.60;99.90;;;;;;5088980;28;20103;-81
2023/04/30 01:19:53;;;;;;;7.38;4.00;;;7.60;99.90;;;;;;5086491;28;20113;-80
2023/04/30 01:22:35;;;;;;;5.20;3.83;;;7.70;99.90;;;;;;5107935;28;20039;-82
2023/04/30 01:25:06;;;;;;;9.07;4.43;;;7.70;99.90;;;;;;5090072;28;20044;-82
2023/04/30 01:27:51;;;;;;;7.80;4.05;;;7.90;99.90;;;;;;5105350;27;20055;-79
2023/04/30 01:30:18;;;;;;;9.97;4.87;;;7.70;99.90;;;;;;5118499;27;20036;-79
2023/04/30 01:32:43;;;;;;;6.63;4.20;;;7.80;99.90;;;;;;5084231;28;20047;-80
2023/04/30 01:35:09;;;;;;;6.53;4.03;;;7.90;99.90;;;;;;5103779;28;20039;-83
2023/04/30 01:37:53;;;;;;;6.28;3.92;;;7.60;99.90;;;;;;5088403;28;20054;-79
2023/04/30 01:40:23;;;;;;;7.43;3.78;;;7.70;99.90;;;;;;5092538;28;20039;-79
2023/04/30 01:43:24;;;;;;;5.30;3.95;;;7.90;99.90;;;;;;5073943;28;20071;-78
2023/04/30 01:46:18;;;;;;;8.48;3.80;;;7.70;99.90;;;;;;5045147;28;20055;-79
2023/04/30 01:49:24;;;;;;;7.75;3.80;;;7.70;99.90;;;;;;5086485;28;20043;-79
2023/04/30 01:52:00;;;;;;;11.02;4.35;;;7.60;99.90;;;;;;5069569;28;20416;-84
2023/04/30 01:54:34;;;;;;;5.82;3.45;;;7.90;99.90;;;;;;5088507;28;20089;-83
2023/04/30 01:57:17;;;;;;;9.50;4.20;;;7.90;99.90;;;;;;5114033;27;20487;-83
2023/04/30 01:59:46;;;;;;;10.02;4.35;;;7.50;99.90;;;;;;5080759;28;20040;-78
2023/04/30 02:02:11;;;;;;;8.40;4.00;;;7.90;99.90;;;;;;5092485;28;20101;-77
2023/04/30 02:04:37;;;;;;;7.82;4.55;;;7.70;99.90;;;;;;5083666;28;20452;-79
2023/04/30 02:07:03;;;;;;;8.95;4.28;;;7.70;99.90;;;;;;5067591;28;20388;-74
2023/04/30 02:09:28;;;;;;;7.28;4.13;;;7.60;99.90;;;;;;5083169;28;20031;-79
2023/04/30 02:11:56;;;;;;;7.95;4.50;;;7.90;99.90;;;;;;5079140;28;20735;-77
2023/04/30 02:14:22;;;;;;;6.20;3.67;;;8.10;99.90;;;;;;5095262;28;20360;-80
2023/04/30 02:16:47;;;;;;;5.65;4.00;;;7.90;99.90;;;;;;5071847;28;20044;-78
2023/04/30 02:19:13;;;;;;;5.50;3.63;;;7.70;99.90;;;;;;5072951;28;20468;-78
2023/04/30 02:21:39;;;;;;;6.25;3.80;;;7.90;99.90;;;;;;5090960;28;20076;-78
2023/04/30 02:24:05;;;;;;;7.22;4.03;;;7.70;99.90;;;;;;5091739;28;20423;-79
2023/04/30 02:26:31;;;;;;;10.27;4.03;;;7.60;99.90;;;;;;5090278;28;20086;-82
2023/04/30 02:28:57;;;;;;;5.97;4.18;;;7.80;99.90;;;;;;5066063;28;20086;-80
2023/04/30 02:31:22;;;;;;;4.22;3.40;;;7.70;99.90;;;;;;5071967;28;20036;-81
2023/04/30 02:33:48;;;;;;;4.88;3.58;;;7.80;99.90;;;;;;5086034;28;20039;-80
2023/04/30 02:36:14;;;;;;;8.57;4.68;;;7.80;99.90;;;;;;5069499;28;20040;-80
2023/04/30 02:38:39;;;;;;;7.30;4.18;;;7.50;99.90;;;;;;5066803;28;20047;-79
2023/04/30 02:41:05;;;;;;;11.68;4.35;;;7.60;99.90;;;;;;5069096;28;20504;-81
2023/04/30 02:43:33;;;;;;;6.90;4.18;;;7.60;99.90;;;;;;5071853;28;20696;-81
2023/04/30 02:45:59;;;;;;;7.22;3.92;;;7.60;99.90;;;;;;5087089;28;20035;-80
2023/04/30 02:48:25;;;;;;;6.03;4.10;;;7.60;99.90;;;;;;5089487;28;20042;-79
2023/04/30 02:50:50;;;;;;;7.40;4.10;;;7.50;99.90;;;;;;5104164;28;20092;-83
2023/04/30 02:53:16;;;;;;;8.30;4.18;;;7.50;99.90;;;;;;5069755;28;20092;-79
2023/04/30 02:55:42;;;;;;;6.43;3.95;;;7.60;99.90;;;;;;5090541;28;20055;-78
2023/04/30 02:58:08;;;;;;;6.18;4.15;;;7.50;99.90;;;;;;5069234;28;20067;-79
2023/04/30 03:00:34;;;;;;;6.95;3.92;;;7.90;99.90;;;;;;5085204;28;20039;-78
2023/04/30 03:03:00;;;;;;;5.88;4.13;;;7.90;99.90;;;;;;5100724;28;20830;-79
2023/04/30 03:05:25;;;;;;;9.48;4.50;;;7.60;99.90;;;;;;5065865;28;20042;-81
2023/04/30 03:07:51;;;;;;;10.10;4.05;;;7.60;99.90;;;;;;5071993;28;20051;-78
2023/04/30 03:10:17;;;;;;;8.02;4.57;;;7.80;99.90;;;;;;5103623;28;20032;-77
2023/04/30 03:12:43;;;;;;;4.65;3.70;;;7.70;99.90;;;;;;5087315;28;20118;-77
2023/04/30 03:15:09;;;;;;;6.78;4.18;;;7.80;99.90;;;;;;5090233;28;20142;-78
2023/04/30 03:17:35;;;;;;;8.98;4.03;;;7.70;99.90;;;;;;5072883;28;20040;-80
2023/04/30 03:20:00;;;;;;;5.13;4.07;;;7.90;99.90;;;;;;5100705;28;20064;-80
2023/04/30 03:22:26;;;;;;;4.70;4.00;;;7.60;99.90;;;;;;5079567;28;20519;-81
2023/04/30 03:24:52;;;;;;;10.18;4.72;;;7.80;99.90;;;;;;5089301;28;20035;-81
2023/04/30 03:27:17;;;;;;;9.18;5.00;;;8.10;99.90;;;;;;5091741;27;20055;-82
2023/04/30 03:29:43;;;;;;;13.27;5.40;;;8.10;99.90;;;;;;5089687;28;20485;-79
2023/04/30 03:32:09;;;;;;;10.35;4.40;;;8.00;99.90;;;;;;5091373;28;20067;-78
2023/04/30 03:34:34;;;;;;;9.40;4.38;;;8.30;99.90;;;;;;5088864;28;20126;-79
2023/04/30 03:37:00;;;;;;;8.68;4.35;;;8.30;99.90;;;;;;5091260;28;20618;-79
2023/04/30 03:39:26;;;;;;;10.20;5.13;;;8.00;99.90;;;;;;5089940;28;20038;-79
2023/04/30 03:41:52;;;;;;;6.65;4.75;;;8.20;99.90;;;;;;5075727;28;20055;-81
2023/04/30 03:44:18;;;;;;;11.50;3.92;;;8.40;99.90;;;;;;5077357;28;20040;-78
2023/04/30 03:46:43;;;;;;;8.45;4.72;;;8.00;99.90;;;;;;5093781;28;20032;-81
2023/04/30 03:49:10;;;;;;;7.72;4.20;;;8.10;99.90;;;;;;5059752;27;20036;-81
2023/04/30 03:51:38;;;;;;;8.73;4.15;;;8.30;99.90;;;;;;5075229;28;20036;-81
2023/04/30 03:54:05;;;;;;;7.07;4.00;;;7.80;99.90;;;;;;5093688;27;20055;-84
2023/04/30 03:56:32;;;;;;;7.82;4.10;;;7.80;99.90;;;;;;5057139;28;20373;-80
2023/04/30 03:58:58;;;;;;;6.53;4.25;;;7.90;99.90;;;;;;5096765;28;20035;-81
2023/04/30 04:01:24;;;;;;;6.40;4.38;;;7.90;99.90;;;;;;5056404;28;20040;-78
2023/04/30 04:03:50;;;;;;;6.88;3.85;;;8.10;99.90;;;;;;5077937;28;20388;-80
2023/04/30 04:06:15;;;;;;;7.95;3.90;;;7.60;99.90;;;;;;5057420;28;20039;-80
2023/04/30 04:08:42;;;;;;;9.10;4.15;;;7.90;99.90;;;;;;5092069;27;20035;-83
2023/04/30 04:11:09;;;;;;;5.70;4.78;;;7.60;99.90;;;;;;5085773;28;20826;-80
2023/04/30 04:13:34;;;;;;;6.15;4.28;;;7.80;99.90;;;;;;5094236;27;20054;-79
2023/04/30 04:16:00;;;;;;;7.10;3.83;;;7.60;99.90;;;;;;5082441;28;20035;-78
2023/04/30 04:18:26;;;;;;;7.43;4.93;;;7.90;99.90;;;;;;5080992;28;20080;-81
2023/04/30 04:20:53;;;;;;;5.38;4.18;;;7.70;99.90;;;;;;5089776;28;20047;-78
2023/04/30 04:23:19;;;;;;;8.85;5.25;;;7.80;99.90;;;;;;5089453;28;20040;-77
2023/04/30 04:25:48;;;;;;;8.35;4.80;;;7.80;99.90;;;;;;5107483;28;20040;-81
2023/04/30 04:28:15;;;;;;;4.85;4.35;;;8.00;99.90;;;;;;5082813;27;20530;-79
2023/04/30 04:30:42;;;;;;;9.38;4.03;;;7.50;99.90;;;;;;5090819;28;20048;-79
2023/04/30 04:33:08;;;;;;;4.82;3.63;;;7.80;99.90;;;;;;5073286;28;20137;-78
2023/04/30 04:35:33;;;;;;;5.80;3.58;;;7.80;99.90;;;;;;5092450;28;20043;-82
2023/04/30 04:38:00;;;;;;;4.68;3.42;;;7.30;99.90;;;;;;5087276;28;20047;-82
2023/04/30 04:40:26;;;;;;;4.93;3.17;;;7.70;99.90;;;;;;5073895;27;20688;-82
2023/04/30 04:42:52;;;;;;;5.25;3.28;;;7.50;99.90;;;;;;5074534;28;20039;-80
2023/04/30 04:45:19;;;;;;;4.95;4.00;;;7.50;99.90;;;;;;5067668;28;20520;-82
2023/04/30 04:47:45;;;;;;;5.13;3.90;;;7.30;99.90;;;;;;5081941;28;20054;-81
2023/04/30 04:50:11;;;;;;;6.22;3.88;;;7.70;99.90;;;;;;5091975;27;20063;-78
2023/04/30 04:52:38;;;;;;;8.75;4.43;;;7.90;99.90;;;;;;5091774;28;20028;-81
2023/04/30 04:55:04;;;;;;;7.65;4.18;;;7.80;99.90;;;;;;5092271;27;20046;-80
2023/04/30 04:57:30;;;;;;;9.13;5.03;;;7.90;99.90;;;;;;5060438;28;20093;-79
2023/04/30 04:59:56;;;;;;;9.13;4.88;;;8.00;99.90;;;;;;5077197;28;20129;-78
2023/04/30 05:02:22;;;;;;;5.85;4.60;;;8.30;99.90;;;;;;5083997;28;20586;-80
2023/04/30 05:04:51;;;;;;;14.63;5.60;;;8.20;99.90;;;;;;5061682;28;20104;-82
2023/04/30 05:07:17;;;;;;;10.32;5.30;;;8.30;99.90;;;;;;5123679;27;20404;-81
2023/04/30 05:09:46;;;;;;;8.88;4.97;;;8.80;99.90;;;;;;5086420;28;20036;-79
2023/04/30 05:12:13;;;;;;;13.23;5.20;;;9.00;99.90;;;;;;5073419;27;20097;-79
2023/04/30 05:14:39;;;;;;;12.65;5.25;;;8.70;99.90;;;;;;5086458;28;20488;-79
2023/04/30 05:17:05;;;;;;;8.27;4.95;;;9.20;99.90;;;;;;5073975;28;20100;-80
2023/04/30 05:19:31;;;;;;;13.23;5.55;;;8.90;99.90;;;;;;5088480;28;20044;-79
2023/04/30 05:21:57;;;;;;;8.05;4.85;;;9.00;99.90;;;;;;5081308;28;20357;-80
2023/04/30 05:24:23;;;;;;;8.77;5.55;;;9.30;99.90;;;;;;5074064;28;20043;-78
2023/04/30 05:26:49;;;;;;;10.43;5.32;;;9.10;99.90;;;;;;5100544;28;20039;-81
2023/04/30 05:29:15;;;;;;;9.35;5.47;;;9.20;99.90;;;;;;5063282;28;20047;-76
2023/04/30 05:31:40;;;;;;;12.85;5.82;;;9.60;99.90;;;;;;5073204;28;20055;-82
2023/04/30 05:34:06;;;;;;;7.07;4.93;;;9.20;99.90;;;;;;5053032;28;20096;-76
2023/04/30 05:36:32;;;;;;;8.38;5.55;;;9.60;99.90;;;;;;5091624;28;20096;-79
2023/04/30 05:38:58;;;;;;;10.05;5.35;;;9.30;99.90;;;;;;5090290;27;20046;-77
2023/04/30 05:41:23;;;;;;;14.07;5.45;;;9.40;99.90;;;;;;5070392;28;20074;-77
2023/04/30 05:43:49;;;;;;;8.35;4.90;;;9.70;99.90;;;;;;5090168;28;20044;-81
2023/04/30 05:46:15;;;;;;;9.75;4.90;;;9.70;99.90;;;;;;5088223;27;20031;-76
2023/04/30 05:48:40;;;;;;;6.22;4.63;;;9.90;99.90;;;;;;5104812;28;20089;-78
2023/04/30 05:51:06;;;;;;;9.45;4.90;;;9.90;99.90;;;;;;5091312;28;20045;-77
2023/04/30 05:53:32;;;;;;;7.63;4.78;;;10.00;99.90;;;;;;5082240;28;20049;-80
2023/04/30 05:55:58;;;;;;;9.82;5.38;;;10.10;99.90;;;;;;5091160;28;20043;-79
2023/04/30 05:58:24;;;;;;;11.52;4.47;;;10.00;99.90;;;;;;5072049;28;20040;-78
2023/04/30 06:00:53;;;;;;;12.05;4.72;;;9.80;99.90;;;;;;5081538;28;20122;-78
2023/04/30 06:03:19;;;;;;;11.00;4.82;;;9.90;99.90;;;;;;5072988;28;20116;-77
2023/04/30 06:05:45;;;;;;;12.63;5.05;;;10.00;99.90;;;;;;5058006;28;20033;-83
2023/04/30 06:08:11;;;;;;;11.85;4.80;;;10.00;99.90;;;;;;5080299;28;20089;-79
2023/04/30 06:10:38;;;;;;;8.85;4.18;;;10.40;99.90;;;;;;5088051;28;20032;-82
2023/04/30 06:13:04;;;;;;;8.57;4.68;;;10.50;99.90;;;;;;5096996;28;20044;-79
2023/04/30 06:15:29;;;;;;;9.15;4.20;;;10.30;99.90;;;;;;5090631;28;20044;-79
2023/04/30 06:17:55;;;;;;;8.68;3.80;;;10.30;99.90;;;;;;5089758;28;20498;-78
2023/04/30 06:20:21;;;;;;;10.00;4.38;;;10.20;99.90;;;;;;5091439;28;20137;-76
2023/04/30 06:22:46;;;;;;;9.30;4.25;;;10.70;99.90;;;;;;5053554;28;20036;-81
2023/04/30 06:25:12;;;;;;;8.07;3.55;;;10.40;99.90;;;;;;5090712;28;20035;-78
2023/04/30 06:27:38;;;;;;;10.02;4.35;;;10.60;99.90;;;;;;5072981;28;20063;-80
2023/04/30 06:30:04;;;;;;;6.00;3.33;;;10.70;99.90;;;;;;5070824;28;20047;-84
2023/04/30 06:32:30;;;;;;;5.40;3.30;;;10.90;99.90;;;;;;5079405;28;20044;-78
2023/04/30 06:34:56;;;;;;;5.90;3.22;;;10.90;99.90;;;;;;5087799;28;20051;-82
2023/04/30 06:37:22;;;;;;;6.53;2.78;;;10.90;99.90;;;;;;5090685;28;20494;-80
2023/04/30 06:39:48;;;;;;;7.70;3.13;;;10.80;99.90;;;;;;5090060;28;20040;-78
2023/04/30 06:42:14;;;;;;;8.45;3.53;;;11.00;99.90;;;;;;5088976;28;20043;-81
2023/04/30 06:44:39;;;;;;;7.28;3.15;;;11.10;99.90;;;;;;5086564;28;20038;-79
2023/04/30 06:47:05;;;;;;;9.60;3.63;;;11.20;99.90;;;;;;5069523;28;20392;-84
2023/04/30 06:49:31;;;;;;;6.68;3.30;;;11.40;99.90;;;;;;5116077;28;20063;-80
2023/04/30 06:51:57;;;;;;;8.57;3.63;;;11.30;99.90;;;;;;5073673;28;20050;-80
2023/04/30 06:54:25;;;;;;;5.85;2.65;;;11.30;99.90;;;;;;5092203;28;20050;-79
2023/04/30 06:56:51;;;;;;;8.82;2.83;;;11.40;99.90;;;;;;5094402;28;20484;-77
2023/04/30 06:59:17;;;;;;;9.38;2.70;;;11.30;99.90;;;;;;5074166;28;20051;-73
2023/04/30 07:01:43;;;;;;;6.95;2.60;;;11.40;99.90;;;;;;5091089;28;20039;-80
2023/04/30 07:04:08;;;;;;;7.00;2.75;;;11.90;99.90;;;;;;5083206;28;20047;-84
2023/04/30 07:06:34;;;;;;;8.73;2.50;;;11.80;99.90;;;;;;5083291;27;20051;-80
2023/04/30 07:09:00;;;;;;;6.53;2.30;;;11.80;99.90;;;;;;5061609;28;20070;-81
2023/04/30 07:11:26;;;;;;;6.47;2.45;;;11.80;99.90;;;;;;5072997;28;20051;-81
2023/04/30 07:13:52;;;;;;;4.95;2.15;;;11.60;99.90;;;;;;5093829;28;20116;-85
2023/04/30 07:16:18;;;;;;;9.77;2.85;;;11.80;99.90;;;;;;5073828;28;20104;-81
2023/04/30 07:18:47;;;;;;;6.97;2.30;;;11.90;99.90;;;;;;5102267;28;20738;-81
2023/04/30 07:21:13;;;;;;;4.28;2.25;;;12.10;99.90;;;;;;5077698;28;20043;-82
2023/04/30 07:23:39;;;;;;;8.15;2.47;;;12.40;99.90;;;;;;5110410;28;20047;-86
2023/04/30 07:26:05;;;;;;;5.93;2.28;;;12.70;99.90;;;;;;5059140;28;20096;-86
2023/04/30 07:28:59;;;;;;;11.20;2.58;;;12.60;99.90;;;;;;5080754;28;20087;-85
2023/04/30 07:31:25;;;;;;;7.05;2.60;;;12.50;99.90;;;;;;5071410;28;20137;-87
2023/04/30 07:33:51;;;;;;;8.38;2.47;;;12.70;99.90;;;;;;5103303;28;20035;-86
2023/04/30 07:36:17;;;;;;;6.95;2.13;;;12.60;99.90;;;;;;5053653;28;20046;-86
2023/04/30 07:38:43;;;;;;;6.97;2.40;;;12.40;99.90;;;;;;5110228;28;20036;-87
2023/04/30 07:41:09;;;;;;;7.25;2.08;;;12.60;99.90;;;;;;5091491;28;20454;-86
2023/04/30 07:43:36;;;;;;;6.40;2.28;;;12.70;99.90;;;;;;5063745;28;20453;-85
2023/04/30 07:46:02;;;;;;;6.78;2.45;;;12.90;99.90;;;;;;5094554;28;20047;-88
2023/04/30 07:48:28;;;;;;;6.00;2.05;;;12.70;99.90;;;;;;5079809;28;20035;-87
2023/04/30 07:50:55;;;;;;;7.85;2.75;;;12.80;99.90;;;;;;5112243;28;20074;-87
2023/04/30 07:53:22;;;;;;;7.47;3.00;;;12.50;99.90;;;;;;5093328;28;20493;-80
2023/04/30 07:55:51;;;;;;;6.25;2.33;;;12.90;99.90;;;;;;5083075;28;20038;-82
2023/04/30 07:58:16;;;;;;;7.43;2.40;;;12.80;99.90;;;;;;5076475;28;20117;-81
2023/04/30 08:00:42;;;;;;;4.90;2.28;;;12.90;99.90;;;;;;5093994;28;20047;-81
2023/04/30 08:03:08;;;;;;;9.68;2.50;;;12.80;99.90;;;;;;5090794;28;20079;-80
2023/04/30 08:05:34;;;;;;;7.80;2.10;;;13.00;99.90;;;;;;5075118;28;20547;-85
2023/04/30 08:07:59;;;;;;;6.63;2.20;;;13.20;99.90;;;;;;5091855;28;20035;-83
2023/04/30 08:10:25;;;;;;;7.38;2.30;;;13.50;99.90;;;;;;5089938;28;20039;-81
2023/04/30 08:12:51;;;;;;;5.82;2.35;;;13.50;99.90;;;;;;5073876;28;20051;-85
2023/04/30 08:15:20;;;;;;;8.23;2.20;;;13.50;99.90;;;;;;5053598;28;20039;-81
2023/04/30 08:17:50;;;;;;;5.68;2.58;;;13.50;99.90;;;;;;5092964;28;20042;-81
2023/04/30 08:20:15;;;;;;;8.88;2.67;;;13.50;99.90;;;;;;5106208;28;20069;-82
2023/04/30 08:22:42;;;;;;;7.00;2.40;;;13.50;99.90;;;;;;5075163;28;20047;-81
2023/04/30 08:25:11;;;;;;;6.05;2.50;;;13.70;99.90;;;;;;5055258;28;20138;-82
2023/04/30 08:27:37;;;;;;;6.45;2.63;;;13.70;99.90;;;;;;5102709;28;20426;-83
2023/04/30 08:30:03;;;;;;;5.65;2.50;;;13.30;99.90;;;;;;5103432;28;20047;-81
2023/04/30 08:32:29;;;;;;;7.35;2.58;;;13.70;99.90;;;;;;5074336;28;20122;-78
2023/04/30 08:34:55;;;;;;;4.82;2.35;;;13.60;99.90;;;;;;5086828;28;20130;-80
2023/04/30 08:37:21;;;;;;;8.00;2.30;;;13.80;99.90;;;;;;5092628;28;20043;-79
2023/04/30 08:39:46;;;;;;;3.83;2.30;;;14.00;99.90;;;;;;5085731;28;20396;-83
2023/04/30 08:42:14;;;;;;;9.82;2.35;;;14.30;99.90;;;;;;5045216;28;20044;-81
2023/04/30 08:44:42;;;;;;;5.78;2.28;;;14.10;99.90;;;;;;5085963;28;20036;-82
2023/04/30 08:47:13;;;;;;;5.50;2.30;;;13.80;99.90;;;;;;5115606;27;20056;-79
2023/04/30 08:49:40;;;;;;;6.78;2.00;;;14.00;99.90;;;;;;5084779;28;20512;-80
2023/04/30 08:52:07;;;;;;;7.70;2.65;;;14.20;99.90;;;;;;5069646;28;20078;-81
2023/04/30 08:54:37;;;;;;;5.82;2.47;;;14.50;99.90;;;;;;5083341;28;20032;-80
2023/04/30 08:57:04;;;;;;;8.93;2.35;;;14.10;99.90;;;;;;5090820;28;20127;-81
2023/04/30 08:59:30;;;;;;;5.32;2.20;;;14.30;99.90;;;;;;5106785;28;20048;-81
2023/04/30 09:01:55;;;;;;;5.30;2.67;;;14.40;99.90;;;;;;5078906;28;20069;-82
2023/04/30 09:04:21;;;;;;;9.20;2.80;;;14.00;99.90;;;;;;5077948;28;20040;-80
2023/04/30 09:06:47;;;;;;;10.23;2.72;;;14.30;99.90;;;;;;5093666;28;20035;-81
2023/04/30 09:09:14;;;;;;;6.38;2.30;;;14.20;99.90;;;;;;5072090;28;20136;-80
2023/04/30 09:11:41;;;;;;;6.22;2.38;;;14.40;99.90;;;;;;5090717;28;20069;-80
2023/04/30 09:14:07;;;;;;;5.25;2.20;;;14.40;99.90;;;;;;5075985;28;20047;-79
2023/04/30 09:16:47;;;;;;;7.13;2.60;;;14.40;99.90;;;;;;5068579;28;20986;-77
2023/04/30 09:19:27;;;;;;;10.85;2.83;;;14.20;99.90;;;;;;5088616;28;20544;-77
2023/04/30 09:21:53;;;;;;;7.35;2.60;;;14.40;99.90;;;;;;5085562;28;20122;-79
2023/04/30 09:24:19;;;;;;;5.80;2.20;;;13.90;99.90;;;;;;5101612;27;20067;-78
2023/04/30 09:26:46;;;;;;;4.85;2.25;;;14.20;99.90;;;;;;5068600;28;20058;-79
2023/04/30 09:29:12;;;;;;;6.85;2.40;;;14.50;99.90;;;;;;5090150;28;20468;-81
2023/04/30 09:31:41;;;;;;;7.72;2.67;;;14.50;99.90;;;;;;5093663;27;20074;-81
2023/04/30 09:34:07;;;;;;;5.40;2.30;;;13.70;99.90;;;;;;5083477;28;20611;-85
2023/04/30 09:36:33;;;;;;;8.07;2.65;;;14.10;99.90;;;;;;5109933;28;20046;-85
2023/04/30 09:39:07;;;;;;;5.40;2.35;;;14.50;99.90;;;;;;5110604;28;20656;-84
2023/04/30 09:41:34;;;;;;;7.25;2.42;;;14.30;99.90;;;;;;5090926;28;20041;-82
2023/04/30 09:44:00;;;;;;;5.72;2.25;;;14.20;99.90;;;;;;5088499;28;20054;-84
2023/04/30 09:46:37;;;;;;;5.43;2.58;;;14.20;99.90;;;;;;5075311;28;20724;-81
2023/04/30 09:49:04;;;;;;;6.85;2.42;;;14.20;99.90;;;;;;5089102;28;20047;-80
2023/04/30 09:51:30;;;;;;;5.03;2.53;;;14.40;99.90;;;;;;5074289;28;20037;-81
2023/04/30 09:53:56;;;;;;;6.40;2.30;;;14.50;99.90;;;;;;5074488;28;20039;-80
2023/04/30 09:56:24;;;;;;;5.85;2.30;;;14.60;99.90;;;;;;5088166;28;20039;-80
2023/04/30 09:58:55;;;;;;;9.40;2.60;;;14.60;99.90;;;;;;5101191;28;20043;-82
2023/04/30 10:01:25;;;;;;;7.28;3.33;;;14.70;99.90;;;;;;5104807;28;20039;-80
2023/04/30 10:03:52;;;;;;;10.38;2.25;;;14.80;99.90;;;;;;5092775;28;20051;-80
2023/04/30 10:06:20;;;;;;;5.72;2.70;;;15.10;99.90;;;;;;5063105;28;20073;-81
2023/04/30 10:08:50;;;;;;;6.10;2.88;;;15.20;99.90;;;;;;5086227;28;20074;-81
2023/04/30 10:11:21;;;;;;;5.10;2.60;;;15.40;99.90;;;;;;5073319;28;20034;-81
2023/04/30 10:14:02;;;;;;;4.75;2.28;;;15.60;99.90;;;;;;5067632;28;20039;-81
2023/04/30 10:16:54;;;;;;;5.65;2.55;;;15.40;99.90;;;;;;5081621;28;20419;-80
2023/04/30 10:19:23;;;;;;;6.38;2.45;;;16.00;99.90;;;;;;5088727;28;20039;-81
2023/04/30 10:21:48;;;;;;;8.02;2.45;;;16.00;99.90;;;;;;5051912;28;20044;-80
2023/04/30 10:24:18;;;;;;;4.18;2.30;;;16.00;99.90;;;;;;5082648;28;20046;-79
2023/04/30 10:26:46;;;;;;;4.88;2.72;;;16.20;99.90;;;;;;5061991;28;20032;-80
2023/04/30 10:29:16;;;;;;;7.20;2.63;;;16.00;71.60;;;;;;5063107;28;20059;-80
2023/04/30 10:31:51;;;;;;;3.40;2.17;;;15.70;30.20;;;;;;5084265;28;20395;-79
2023/04/30 10:34:45;;;;;;;4.07;2.20;;;16.00;46.70;;;;;;5054378;28;20089;-81
2023/04/30 10:37:29;;;;;;;8.23;2.50;;;16.00;28.40;;;;;;5085357;28;20044;-78
2023/04/30 10:39:55;;;;;;;4.88;2.20;;;16.30;65.10;;;;;;5062689;28;20123;-86
2023/04/30 10:42:21;;;;;;;4.38;2.70;;;16.50;96.90;;;;;;5070250;28;20127;-84
2023/04/30 10:44:47;;;;;;;5.20;2.20;;;16.70;31.50;;;;;;5049842;28;20139;-83
2023/04/30 10:47:15;;;;;;;7.20;2.78;;;17.20;45.80;;;;;;5074120;28;20032;-85
2023/04/30 10:49:47;;;;;;;4.50;2.50;;;17.50;96.00;;;;;;5074472;28;20040;-82
2023/04/30 10:52:13;;;;;;;6.65;3.05;;;17.60;78.20;;;;;;5054494;28;20032;-82
2023/04/30 10:54:40;;;;;;;3.45;2.25;;;17.20;8.20;;;;;;5069435;28;20042;-81
2023/04/30 10:57:16;;;;;;;6.03;2.45;;;17.50;32.80;;;;;;5055829;28;20044;-79
2023/04/30 10:59:53;;;;;;;5.97;2.30;;;17.60;42.80;;;;;;5071775;28;20098;-82
2023/04/30 11:02:19;;;;;;;4.15;2.03;;;17.40;3.20;;;;;;5098366;28;20062;-84
2023/04/30 11:05:06;;;;;;;5.40;2.08;;;17.70;14.30;;;;;;5061433;28;20256;-83
2023/04/30 11:07:33;;;;;;;6.38;2.25;;;17.80;6.70;;;;;;5066484;28;20046;-82
2023/04/30 11:10:01;;;;;;;5.30;2.42;;;17.80;6.80;;;;;;5073616;28;20044;-79
2023/04/30 11:12:27;;;;;;;4.95;2.60;;;18.10;1.00;;;;;;5061709;28;20036;-79
2023/04/30 11:15:04;;;;;;;4.78;2.25;;;17.30;1.00;;;;;;5059365;28;20643;-79
2023/04/30 11:17:31;;;;;;;4.03;2.05;;;17.60;1.00;;;;;;5074931;28;20067;-79
2023/04/30 11:20:02;;;;;;;6.10;2.60;;;18.00;1.00;;;;;;5082987;28;20040;-81
2023/04/30 11:22:37;;;;;;;5.75;2.00;;;18.20;1.00;;;;;;5079318;28;20450;-80
2023/04/30 11:25:11;;;;;;;3.88;2.08;;;18.50;1.00;;;;;;5051816;28;20040;-80
2023/04/30 11:27:41;;;;;;;5.65;2.30;;;18.20;1.00;;;;;;5086498;28;20047;-79
2023/04/30 11:30:13;;;;;;;4.68;2.22;;;18.30;1.00;;;;;;5089650;28;20064;-84
2023/04/30 11:32:40;;;;;;;5.43;2.28;;;18.00;1.00;;;;;;5057523;28;20031;-81
2023/04/30 11:35:07;;;;;;;7.38;2.35;;;18.20;1.00;;;;;;5080275;28;20835;-79
2023/04/30 11:37:35;;;;;;;5.57;2.40;;;18.50;1.00;;;;;;5075953;28;20046;-82
2023/04/30 11:40:04;;;;;;;3.65;2.08;;;18.40;1.00;;;;;;5107823;28;20043;-81
2023/04/30 11:42:33;;;;;;;4.05;2.10;;;18.50;1.00;;;;;;5101467;27;20463;-79
2023/04/30 11:45:16;;;;;;;3.58;1.80;;;18.70;1.00;;;;;;5102245;28;20067;-80
2023/04/30 11:47:49;;;;;;;4.68;2.20;;;18.80;1.00;;;;;;5088797;28;20557;-82
2023/04/30 11:50:26;;;;;;;4.83;2.20;;;18.70;1.00;;;;;;5066748;28;20881;-84
2023/04/30 11:52:53;;;;;;;4.13;2.13;;;18.90;1.00;;;;;;5085941;28;20047;-83
2023/04/30 11:55:24;;;;;;;4.93;2.22;;;19.20;1.00;;;;;;5068374;28;20036;-81
2023/04/30 11:57:54;;;;;;;4.57;1.88;;;19.10;1.00;;;;;;5088780;28;20130;-82
2023/04/30 12:00:30;;;;;;;3.72;2.00;;;18.50;1.00;;;;;;5082435;28;20681;-80
2023/04/30 12:02:58;;;;;;;5.75;2.42;;;18.90;1.00;;;;;;5119081;27;20038;-83
2023/04/30 12:05:26;;;;;;;5.38;2.35;;;18.90;1.00;;;;;;5085171;28;20701;-80
2023/04/30 12:07:58;;;;;;;3.58;2.00;;;19.40;1.00;;;;;;5084213;28;20053;-82
2023/04/30 12:10:24;;;;;;;3.45;2.45;;;19.10;1.00;;;;;;5083661;28;20098;-81
2023/04/30 12:12:51;;;;;;;2.30;2.10;;;19.70;1.00;;;;;;5105939;28;20478;-83
2023/04/30 12:15:22;;;;;;;2.90;2.08;;;20.00;1.00;;;;;;5085651;28;20047;-79
2023/04/30 12:17:47;;;;;;;4.13;2.95;;;19.40;99.90;;;;;;5064480;28;20073;-79
2023/04/30 12:20:14;;;;;;;4.85;2.53;;;18.60;1.00;;;;;;5076271;28;20043;-78
2023/04/30 12:22:44;;;;;;;3.20;2.58;;;18.80;1.00;;;;;;5070597;28;20035;-78
2023/04/30 12:25:15;;;;;;;4.35;2.58;;;18.50;1.00;;;;;;5084403;28;20043;-79
2023/04/30 12:27:44;;;;;;;6.32;2.72;;;18.20;1.00;;;;;;5081775;28;20040;-81
2023/04/30 12:30:10;;;;;;;4.07;2.58;;;18.70;1.00;;;;;;5041353;28;20072;-82
2023/04/30 12:32:43;;;;;;;5.40;3.10;;;18.40;1.00;;;;;;5073419;28;20531;-80
2023/04/30 12:35:14;;;;;;;5.03;2.80;;;18.90;1.00;;;;;;5098125;28;20488;-83
2023/04/30 12:37:42;;;;;;;4.57;2.60;;;19.40;99.90;;;;;;5102611;28;20500;-82
2023/04/30 12:40:08;;;;;;;4.63;2.60;;;19.40;99.90;;;;;;5072765;28;20046;-81
2023/04/30 12:42:34;;;;;;;4.72;3.40;;;19.40;99.90;;;;;;5103426;28;20039;-81
2023/04/30 12:45:00;;;;;;;5.68;3.00;;;18.90;1.00;;;;;;5096076;28;20052;-80
2023/04/30 12:47:26;;;;;;;4.93;3.03;;;19.60;1.00;;;;;;5089787;28;20027;-81
2023/04/30 12:49:52;;;;;;;4.07;2.17;;;19.80;1.00;;;;;;5091527;28;20066;-83
2023/04/30 12:52:23;;;;;;;4.57;2.83;;;20.00;99.90;;;;;;5075117;28;20040;-80
2023/04/30 12:54:49;;;;;;;3.85;2.70;;;19.70;1.00;;;;;;5085923;28;20035;-79
2023/04/30 12:57:14;;;;;;;3.70;2.55;;;19.90;1.00;;;;;;5052326;28;20036;-80